Agana Heights, GU

4:46 PM ChST on October 01, 2014 (GMT +1000)
Maite | Change Station
CLOSE
Current Station
Personal Weather Station
Location: Maite, GU
Elevation: 140 ft
Nearby Weather Stations
Active Advisory: High Surf Advisory

Elev 140 ft 13.48 °N, 144.76 °E | Updated 5 seconds ago

Scattered Clouds
Scattered Clouds
84.9 °F
Feels Like 96 °F
N
9.0
Wind Variable Wind from SW
Gusts 18.0 mph

Today
High -- | Low -- °F
--% Chance of Precip.
Yesterday
High -- | Low -- °F
Precip. -- in
6:10 AM 6:11 PM
Waxing Crescent, 44% visible
Pressure 29.57 in
Visibility 10.0 miles
Clouds Scattered Clouds 2500 ft
Heat Index 96 °F
Dew Point 78 °F
Humidity 79%
Rainfall 1.44 in
Snow Depth Not available.
UV 1.0 out of 12
Pollen Not available.
Air Quality Not available.
Flu Activity Not available.
SPECI PGUM 010611Z 21012G21KT 10SM SCT025 29/24 A2957 RMK AO2

More Conditions Fewer Conditions

Pressure 29.57 in
Visibility 10.0 miles
Clouds Scattered Clouds 2500 ft
Heat Index 96 °F
Dew Point 78 °F
Humidity 79%
Rainfall 1.44 in
Snow Depth Not available.
UV 1.0 out of 12
Pollen Not available.
Air Quality Not available.
Flu Activity Not available.
SPECI PGUM 010611Z 21012G21KT 10SM SCT025 29/24 A2957 RMK AO2

More Conditions Fewer Conditions

10-Day Weather Forecast

Almanac

Astronomy

Oct. 01, 2014 Rise Set
Actual Time 6:10 AM ChST 6:11 PM ChST
Civil Twilight 5:49 AM ChST 6:32 PM ChST
Nautical Twilight 5:24 AM ChST 6:57 PM ChST
Astronomical Twilight 4:59 AM ChST 7:21 PM ChST
Moon 11:54 AM ChST 11:43 PM ChST
Length of Visible Light 12h 43m
Length of Day
12h 00m
Tomorrow will be 0m 44s shorter.
Waxing Crescent, 44% of the Moon is Illuminated
Today
Waxing Crescent
Oct 1
First Quarter
Oct 8
Full
Oct 15
Last Quarter
Oct 23
New

Community

WunderPhotos

Upload Photos

1,757,886 photos uploaded!

Nearby

Snow Depth

Station Depth Elevation
No new snow has been reported.

Earthquake Activity

City Distance Mag. Time & Date
No recent earthquake activity has been reported nearby.
Minimum magnitude displayed is 2.5.

Coastal Water Temperatures

Place Temperature
No Stations Reporting

Nearby Weather Stations